createdAt,value
2023-05-22T00:01:47.102Z,90.70
2023-05-22T00:04:21.577Z,85.28
2023-05-22T00:06:49.873Z,84.85
2023-05-22T00:09:17.435Z,95.43
2023-05-22T00:11:44.972Z,84.15
2023-05-22T00:14:13.899Z,89.50
2023-05-22T00:16:41.721Z,84.20
2023-05-22T00:19:13.795Z,85.35
2023-05-22T00:21:41.476Z,93.60
2023-05-22T00:24:09.646Z,99.18
2023-05-22T00:26:37.203Z,85.18
2023-05-22T00:29:06.220Z,88.30
2023-05-22T00:31:34.093Z,89.43
2023-05-22T00:34:01.743Z,99.43
2023-05-22T00:36:29.974Z,91.70
2023-05-22T00:38:57.494Z,89.15
2023-05-22T00:41:25.284Z,87.95
2023-05-22T00:43:52.890Z,88.03
2023-05-22T00:46:24.765Z,96.15
2023-05-22T00:48:55.563Z,95.30
2023-05-22T00:51:24.613Z,86.43
2023-05-22T00:53:53.744Z,99.95
2023-05-22T00:56:22.406Z,86.88
2023-05-22T00:58:50.114Z,93.20
2023-05-22T01:01:18.150Z,96.47
2023-05-22T01:03:47.228Z,95.55
2023-05-22T01:06:16.340Z,97.63
2023-05-22T01:08:44.795Z,91.22
2023-05-22T01:11:25.918Z,93.15
2023-05-22T01:14:00.716Z,91.43
2023-05-22T01:16:46.989Z,98.80
2023-05-22T01:19:51.244Z,96.07
2023-05-22T01:22:21.850Z,93.32
2023-05-22T01:25:10.431Z,93.90
2023-05-22T01:28:04.006Z,96.90
2023-05-22T01:30:46.217Z,106.63
2023-05-22T01:33:18.784Z,106.20
2023-05-22T01:35:52.155Z,105.20
2023-05-22T01:38:20.770Z,100.63
2023-05-22T01:40:48.686Z,107.18
2023-05-22T01:43:16.910Z,108.88
2023-05-22T01:45:46.385Z,102.95
2023-05-22T01:48:14.020Z,106.70
2023-05-22T01:50:42.095Z,104.32
2023-05-22T01:53:56.478Z,104.70
2023-05-22T01:56:32.736Z,101.80
2023-05-22T01:59:10.159Z,103.50
2023-05-22T02:01:39.612Z,92.18
2023-05-22T02:04:09.719Z,103.32
2023-05-22T02:06:39.175Z,103.18
2023-05-22T02:09:08.821Z,102.80
2023-05-22T02:11:40.737Z,97.43
2023-05-22T02:14:09.519Z,94.07
2023-05-22T02:16:38.439Z,91.43
2023-05-22T02:19:06.858Z,101.07
2023-05-22T02:21:55.428Z,96.57
2023-05-22T02:24:23.973Z,109.13
2023-05-22T02:26:52.458Z,96.30
2023-05-22T02:29:19.886Z,92.43
2023-05-22T02:31:47.417Z,98.28
2023-05-22T02:34:15.030Z,103.75
2023-05-22T02:36:42.608Z,98.95
2023-05-22T02:39:10.246Z,103.50
2023-05-22T02:41:37.771Z,103.82
2023-05-22T02:44:05.592Z,110.45
2023-05-22T02:46:33.372Z,103.63
2023-05-22T02:49:01.045Z,99.85
2023-05-22T02:51:28.744Z,105.43
2023-05-22T02:53:56.216Z,96.45
2023-05-22T02:56:24.376Z,97.53
2023-05-22T02:58:52.008Z,101.88
2023-05-22T03:01:19.526Z,98.38
2023-05-22T03:03:49.262Z,99.00
2023-05-22T03:06:16.969Z,94.47
2023-05-22T03:08:44.746Z,96.00
2023-05-22T03:11:12.326Z,96.38
2023-05-22T03:13:39.773Z,91.57
2023-05-22T03:16:08.501Z,88.50
2023-05-22T03:18:40.789Z,91.45
2023-05-22T03:21:08.440Z,90.80
2023-05-22T03:23:35.947Z,85.18
2023-05-22T03:26:03.583Z,93.28
2023-05-22T03:28:34.868Z,91.10
2023-05-22T03:31:02.511Z,89.97
2023-05-22T03:33:38.159Z,91.35
2023-05-22T03:36:06.220Z,84.53
2023-05-22T03:38:34.224Z,90.15
2023-05-22T03:41:01.742Z,99.28
2023-05-22T03:43:30.205Z,83.18
2023-05-22T03:45:59.594Z,87.35
2023-05-22T03:48:28.336Z,88.57
2023-05-22T03:50:56.045Z,86.80
2023-05-22T03:53:23.514Z,88.90
2023-05-22T03:55:51.046Z,83.25
2023-05-22T03:58:19.454Z,85.20
2023-05-22T04:00:47.060Z,85.00
2023-05-22T04:03:14.675Z,82.53
2023-05-22T04:05:42.359Z,86.90
2023-05-22T04:08:11.211Z,82.15
2023-05-22T04:10:39.250Z,83.10
2023-05-22T04:13:07.065Z,94.78
2023-05-22T04:15:34.530Z,83.10
2023-05-22T04:18:02.223Z,87.07
2023-05-22T04:20:29.895Z,84.78
2023-05-22T04:22:57.900Z,81.38
2023-05-22T04:25:25.585Z,73.13
2023-05-22T04:27:53.526Z,86.78
2023-05-22T04:30:22.378Z,83.63
2023-05-22T04:32:50.261Z,82.85
2023-05-22T04:35:18.888Z,76.95
2023-05-22T04:37:46.608Z,71.93
2023-05-22T04:40:15.618Z,78.28
2023-05-22T04:42:43.545Z,76.32
2023-05-22T04:45:11.524Z,69.35
2023-05-22T04:47:41.904Z,78.13
2023-05-22T04:50:10.055Z,77.80
2023-05-22T04:52:37.699Z,68.20
2023-05-22T04:55:07.133Z,73.45
2023-05-22T04:57:34.635Z,66.35
2023-05-22T05:00:02.225Z,75.00
2023-05-22T05:02:32.734Z,71.07
2023-05-22T05:05:00.357Z,70.47
2023-05-22T05:07:28.358Z,63.03
2023-05-22T05:09:55.940Z,60.13
2023-05-22T05:12:23.493Z,64.80
2023-05-22T05:14:51.497Z,62.47
2023-05-22T05:17:19.122Z,69.35
2023-05-22T05:19:46.601Z,60.33
2023-05-22T05:22:14.135Z,64.43
2023-05-22T05:24:41.754Z,57.60
2023-05-22T05:27:10.034Z,60.90
2023-05-22T05:29:37.862Z,62.35
2023-05-22T05:32:22.728Z,59.67
2023-05-22T05:35:28.690Z,59.53
2023-05-22T05:38:04.676Z,56.22
2023-05-22T05:40:33.800Z,51.97
2023-05-22T05:43:01.325Z,35.60
2023-05-22T05:45:29.936Z,36.50
2023-05-22T05:47:57.974Z,33.72
2023-05-22T05:50:25.513Z,35.67
2023-05-22T05:52:54.312Z,32.90
2023-05-22T05:55:22.924Z,34.10
2023-05-22T05:57:52.365Z,32.47
2023-05-22T06:00:27.905Z,32.83
2023-05-22T06:02:56.387Z,31.98
2023-05-22T06:05:46.208Z,32.72
2023-05-22T06:08:22.514Z,29.42
2023-05-22T06:10:50.575Z,28.48
2023-05-22T06:13:33.440Z,27.67
2023-05-22T06:16:06.572Z,29.65
2023-05-22T06:18:35.169Z,26.73
2023-05-22T06:21:02.828Z,24.98
2023-05-22T06:23:30.387Z,25.23
2023-05-22T06:25:57.893Z,23.38
2023-05-22T06:28:27.259Z,24.38
2023-05-22T06:30:57.428Z,24.08
2023-05-22T06:33:26.985Z,22.15
2023-05-22T06:35:54.517Z,20.92
2023-05-22T06:38:22.257Z,24.25
2023-05-22T06:40:50.229Z,20.30
2023-05-22T06:43:24.113Z,22.77
2023-05-22T06:48:23.664Z,22.35
2023-05-22T06:51:01.211Z,25.33
2023-05-22T06:53:29.243Z,24.45
2023-05-22T06:55:57.359Z,22.85
2023-05-22T06:58:36.370Z,20.17
2023-05-22T07:01:06.231Z,24.45
2023-05-22T07:03:39.930Z,22.40
2023-05-22T07:06:33.995Z,21.70
2023-05-22T07:09:03.244Z,22.15
2023-05-22T07:11:31.028Z,22.17
2023-05-22T07:13:58.990Z,24.55
2023-05-22T07:16:26.556Z,25.02
2023-05-22T07:18:55.324Z,20.17
2023-05-22T07:21:24.153Z,22.38
2023-05-22T07:23:53.103Z,24.60
2023-05-22T07:26:22.734Z,18.15
2023-05-22T07:29:01.427Z,20.05
2023-05-22T07:31:29.395Z,22.52
2023-05-22T07:33:56.969Z,22.90
2023-05-22T07:36:24.552Z,20.90
2023-05-22T07:38:52.262Z,20.50
2023-05-22T07:41:20.258Z,19.52
2023-05-22T07:43:47.847Z,21.00
2023-05-22T07:46:19.880Z,18.25
2023-05-22T07:49:11.209Z,22.17
2023-05-22T07:51:42.262Z,21.92
2023-05-22T07:54:11.158Z,23.20
2023-05-22T07:56:42.186Z,21.58
2023-05-22T07:59:12.881Z,23.60
2023-05-22T08:01:42.198Z,22.30
2023-05-22T08:04:09.882Z,21.02
2023-05-22T08:06:37.750Z,22.40
2023-05-22T08:09:05.398Z,26.60
2023-05-22T08:11:34.486Z,26.17
2023-05-22T08:14:02.069Z,22.30
2023-05-22T08:16:31.260Z,22.65
2023-05-22T08:18:58.912Z,25.13
2023-05-22T08:21:26.487Z,22.27
2023-05-22T08:23:53.888Z,23.40
2023-05-22T08:26:26.380Z,23.05
2023-05-22T08:28:53.979Z,22.60
2023-05-22T08:31:21.709Z,25.05
2023-05-22T08:33:49.244Z,26.50
2023-05-22T08:36:17.110Z,29.92
2023-05-22T08:38:44.717Z,26.05
2023-05-22T08:41:13.477Z,26.00
2023-05-22T08:43:42.080Z,25.40
2023-05-22T08:46:10.345Z,23.98
2023-05-22T08:48:38.722Z,27.88
2023-05-22T08:51:08.015Z,26.13
2023-05-22T08:53:36.905Z,29.13
2023-05-22T08:56:07.407Z,26.40
2023-05-22T08:58:38.779Z,25.13
2023-05-22T09:01:09.424Z,25.42
2023-05-22T09:03:37.965Z,26.13
2023-05-22T09:06:10.777Z,24.13
2023-05-22T09:08:39.363Z,23.50
2023-05-22T09:11:07.018Z,24.50
2023-05-22T09:13:34.595Z,26.75
2023-05-22T09:16:12.624Z,28.02
2023-05-22T09:18:41.759Z,24.60
2023-05-22T09:21:25.955Z,26.67
2023-05-22T09:24:01.956Z,22.83
2023-05-22T09:26:30.476Z,19.85
2023-05-22T09:29:00.428Z,21.67
2023-05-22T09:31:29.884Z,18.00
2023-05-22T09:33:57.850Z,19.05
2023-05-22T09:36:35.079Z,22.00
2023-05-22T09:39:04.606Z,20.35
2023-05-22T09:41:36.424Z,21.33
2023-05-22T09:44:14.678Z,20.15
2023-05-22T09:46:44.638Z,21.48
2023-05-22T09:49:15.743Z,20.38
2023-05-22T09:51:48.188Z,19.92
2023-05-22T09:54:17.286Z,22.42
2023-05-22T09:56:45.157Z,21.45
2023-05-22T09:59:14.828Z,24.02
2023-05-22T10:01:42.990Z,20.73
2023-05-22T10:04:14.556Z,24.73
2023-05-22T10:06:48.180Z,27.20
2023-05-22T10:09:19.481Z,26.45
2023-05-22T10:11:49.102Z,20.63
2023-05-22T10:14:17.340Z,25.42
2023-05-22T10:16:45.621Z,25.92
2023-05-22T10:19:13.873Z,31.15
2023-05-22T10:21:42.769Z,26.70
2023-05-22T10:24:10.760Z,25.83
2023-05-22T10:26:39.561Z,26.30
2023-05-22T10:29:22.739Z,26.13
2023-05-22T10:32:08.421Z,29.05
2023-05-22T10:34:47.293Z,25.77
2023-05-22T10:37:21.814Z,28.90
2023-05-22T10:40:05.114Z,24.23
2023-05-22T10:42:32.985Z,25.33
2023-05-22T10:45:04.793Z,27.60
2023-05-22T10:47:34.295Z,27.27
2023-05-22T10:50:06.003Z,27.88
2023-05-22T10:52:33.627Z,27.05
2023-05-22T10:55:02.006Z,26.15
2023-05-22T10:57:34.790Z,26.02
2023-05-22T11:00:15.694Z,29.50
2023-05-22T11:02:46.957Z,27.60
2023-05-22T11:05:21.265Z,27.50
2023-05-22T11:07:49.504Z,27.75
2023-05-22T11:10:27.266Z,24.52
2023-05-22T11:13:12.540Z,26.60
2023-05-22T11:15:46.097Z,25.85
2023-05-22T11:18:15.299Z,27.42
2023-05-22T11:20:44.369Z,24.35
2023-05-22T11:23:12.123Z,22.05
2023-05-22T11:25:41.604Z,28.50
2023-05-22T11:28:10.972Z,24.75
2023-05-22T11:30:39.144Z,30.27
2023-05-22T11:33:07.073Z,31.13
2023-05-22T11:35:35.135Z,26.83
2023-05-22T11:38:06.170Z,27.27
2023-05-22T11:40:33.735Z,26.00
2023-05-22T11:43:01.264Z,28.48
2023-05-22T11:45:28.962Z,28.70
2023-05-22T11:47:56.677Z,30.20
2023-05-22T11:50:40.159Z,29.98
2023-05-22T11:53:08.775Z,29.42
2023-05-22T11:55:36.309Z,29.67
2023-05-22T11:58:03.888Z,36.58
2023-05-22T12:00:32.221Z,29.95
2023-05-22T12:03:00.002Z,31.45
2023-05-22T12:05:27.766Z,30.30
2023-05-22T12:07:55.451Z,30.55
2023-05-22T12:10:23.236Z,35.15
2023-05-22T12:12:51.088Z,35.35
2023-05-22T12:15:21.707Z,32.22
2023-05-22T12:17:49.367Z,29.00
2023-05-22T12:20:16.979Z,26.95
2023-05-22T12:22:44.887Z,26.52
2023-05-22T12:25:20.609Z,27.77
2023-05-22T12:27:48.298Z,25.73
2023-05-22T12:30:17.118Z,29.50
2023-05-22T12:32:49.962Z,27.67
2023-05-22T12:35:18.742Z,27.10
2023-05-22T12:37:50.952Z,26.88
2023-05-22T12:40:18.944Z,25.08
2023-05-22T12:42:49.845Z,24.67
2023-05-22T12:45:18.354Z,23.50
2023-05-22T12:47:46.352Z,25.52
2023-05-22T12:50:14.092Z,29.70
2023-05-22T12:52:41.670Z,27.50
2023-05-22T12:55:11.308Z,26.02
2023-05-22T12:57:38.984Z,29.40
2023-05-22T13:00:07.205Z,26.63
2023-05-22T13:02:35.323Z,27.33
2023-05-22T13:05:02.876Z,27.50
2023-05-22T13:07:31.966Z,26.67
2023-05-22T13:09:59.528Z,32.67
2023-05-22T13:12:27.605Z,27.42
2023-05-22T13:14:55.167Z,27.98
2023-05-22T13:17:22.705Z,30.27
2023-05-22T13:19:50.245Z,26.75
2023-05-22T13:22:18.597Z,26.20
2023-05-22T13:24:46.277Z,26.75
2023-05-22T13:27:14.038Z,32.72
2023-05-22T13:29:41.595Z,30.05
2023-05-22T13:32:09.201Z,34.10
2023-05-22T13:34:36.823Z,33.45
2023-05-22T13:37:04.789Z,30.25
2023-05-22T13:39:32.356Z,28.23
2023-05-22T13:42:00.827Z,29.05
2023-05-22T13:44:28.485Z,25.85
2023-05-22T13:46:56.100Z,29.20
2023-05-22T13:49:23.673Z,26.17
2023-05-22T13:51:51.361Z,28.58
2023-05-22T13:54:18.979Z,29.20
2023-05-22T13:56:46.794Z,29.98
2023-05-22T13:59:14.412Z,32.17
2023-05-22T14:01:41.973Z,35.55
2023-05-22T14:04:09.655Z,35.83
2023-05-22T14:06:37.346Z,33.40
2023-05-22T14:09:07.544Z,26.05
2023-05-22T14:11:35.394Z,30.30
2023-05-22T14:14:03.033Z,25.30
2023-05-22T14:16:30.761Z,29.30
2023-05-22T14:19:00.861Z,23.58
2023-05-22T14:21:28.607Z,27.40
2023-05-22T14:23:56.144Z,27.05
2023-05-22T14:26:24.657Z,28.08
2023-05-22T14:28:53.302Z,26.38
2023-05-22T14:31:20.845Z,29.15
2023-05-22T14:33:48.558Z,24.85
2023-05-22T14:36:18.100Z,28.23
2023-05-22T14:38:45.656Z,25.10
2023-05-22T14:41:13.599Z,25.88
2023-05-22T14:43:41.253Z,28.02
2023-05-22T14:46:08.929Z,29.52
2023-05-22T14:48:36.605Z,30.42
2023-05-22T14:51:04.265Z,27.15
2023-05-22T14:53:31.856Z,33.97
2023-05-22T14:55:59.475Z,26.20
2023-05-22T14:58:26.946Z,26.58
2023-05-22T15:00:54.475Z,27.55
2023-05-22T15:03:23.869Z,27.92
2023-05-22T15:05:51.344Z,27.85
2023-05-22T15:08:20.301Z,34.05
2023-05-22T15:10:47.917Z,26.50
2023-05-22T15:13:15.949Z,28.85
2023-05-22T15:15:43.844Z,29.75
2023-05-22T15:18:12.517Z,31.40
2023-05-22T15:20:40.543Z,36.83
2023-05-22T15:23:08.004Z,34.75
2023-05-22T15:25:36.917Z,34.92
2023-05-22T15:28:08.183Z,37.05
2023-05-22T15:30:36.762Z,40.03
2023-05-22T15:33:04.367Z,36.92
2023-05-22T15:35:32.571Z,40.35
2023-05-22T15:38:00.177Z,42.13
2023-05-22T15:40:27.859Z,43.25
2023-05-22T15:42:55.906Z,41.00
2023-05-22T15:45:23.451Z,40.88
2023-05-22T15:47:51.351Z,47.03
2023-05-22T15:50:19.009Z,46.10
2023-05-22T15:52:46.485Z,44.45
2023-05-22T15:55:14.058Z,48.92
2023-05-22T15:57:41.621Z,50.42
2023-05-22T16:00:09.774Z,45.70
2023-05-22T16:02:37.362Z,52.10
2023-05-22T16:05:05.303Z,46.75
2023-05-22T16:07:33.109Z,48.75
2023-05-22T16:10:00.700Z,49.92
2023-05-22T16:12:28.198Z,57.72
2023-05-22T16:15:00.315Z,58.42
2023-05-22T16:17:28.532Z,64.35
2023-05-22T16:19:56.175Z,73.53
2023-05-22T16:22:30.403Z,80.57
2023-05-22T16:25:04.423Z,81.40
2023-05-22T16:27:31.951Z,77.72
2023-05-22T16:30:02.824Z,80.00
2023-05-22T16:32:31.017Z,71.63
2023-05-22T16:34:58.565Z,86.00
2023-05-22T16:37:26.138Z,102.75
2023-05-22T16:39:53.680Z,118.68
2023-05-22T16:42:21.207Z,131.30
2023-05-22T16:44:48.787Z,132.13
2023-05-22T16:47:16.399Z,124.53
2023-05-22T16:49:44.092Z,120.60
2023-05-22T16:52:11.640Z,119.82
2023-05-22T16:54:39.062Z,112.35
2023-05-22T16:57:07.835Z,111.13
2023-05-22T16:59:35.488Z,114.80
2023-05-22T17:02:03.214Z,131.63
2023-05-22T17:04:31.390Z,130.63
2023-05-22T17:06:58.918Z,153.50
2023-05-22T17:09:27.973Z,123.68
2023-05-22T17:11:55.505Z,123.80
2023-05-22T17:14:23.189Z,124.40
2023-05-22T17:16:50.911Z,118.93
2023-05-22T17:19:18.658Z,111.57
2023-05-22T17:21:46.458Z,111.57
2023-05-22T17:24:14.800Z,118.28
2023-05-22T17:26:44.163Z,109.75
2023-05-22T17:29:11.899Z,102.40
2023-05-22T17:31:39.763Z,108.05
2023-05-22T17:34:07.648Z,133.80
2023-05-22T17:36:35.200Z,124.05
2023-05-22T17:39:02.896Z,119.20
2023-05-22T17:41:31.255Z,120.97
2023-05-22T17:44:01.100Z,124.88
2023-05-22T17:46:28.760Z,113.10
2023-05-22T17:48:56.303Z,120.85
2023-05-22T17:51:23.870Z,118.45
2023-05-22T17:53:56.208Z,115.05
2023-05-22T17:56:23.918Z,118.35
2023-05-22T17:58:51.604Z,117.63
2023-05-22T18:01:19.974Z,122.97
2023-05-22T18:03:47.637Z,126.15
2023-05-22T18:06:15.319Z,125.82
2023-05-22T18:08:42.972Z,133.55
2023-05-22T18:11:10.535Z,137.98
2023-05-22T18:13:39.529Z,142.10
2023-05-22T18:16:07.347Z,146.13
2023-05-22T18:18:34.962Z,138.38
2023-05-22T18:21:03.236Z,137.13
2023-05-22T18:23:30.752Z,134.30
2023-05-22T18:25:58.275Z,129.77
2023-05-22T18:28:26.916Z,128.07
2023-05-22T18:30:55.211Z,126.43
2023-05-22T18:33:24.945Z,146.57
2023-05-22T18:35:52.982Z,140.35
2023-05-22T18:38:22.392Z,130.07
2023-05-22T18:40:50.067Z,127.80
2023-05-22T18:43:17.602Z,124.47
2023-05-22T18:45:45.240Z,135.80
2023-05-22T18:48:12.800Z,127.43
2023-05-22T18:50:40.827Z,131.10
2023-05-22T18:53:08.570Z,134.80
2023-05-22T18:55:36.199Z,133.10
2023-05-22T18:58:03.929Z,143.65
2023-05-22T19:00:31.352Z,144.65
2023-05-22T19:02:59.698Z,137.57
2023-05-22T19:05:27.323Z,139.20
2023-05-22T19:07:55.062Z,134.70
2023-05-22T19:10:22.587Z,135.43
2023-05-22T19:12:50.163Z,137.90
2023-05-22T19:15:17.885Z,139.35
2023-05-22T19:17:45.438Z,133.73
2023-05-22T19:20:13.117Z,145.10
2023-05-22T19:22:40.727Z,138.60
2023-05-22T19:25:08.741Z,130.57
2023-05-22T19:27:38.871Z,145.65
2023-05-22T19:30:07.575Z,146.48
2023-05-22T19:32:35.470Z,138.30
2023-05-22T19:35:02.987Z,145.63
2023-05-22T19:37:31.199Z,149.25
2023-05-22T19:39:58.666Z,154.43
2023-05-22T19:42:26.288Z,143.38
2023-05-22T19:44:53.920Z,148.20
2023-05-22T19:47:21.582Z,141.40
2023-05-22T19:49:49.220Z,146.57
2023-05-22T19:52:16.786Z,140.18
2023-05-22T19:54:44.292Z,143.93
2023-05-22T19:57:11.903Z,150.98
2023-05-22T19:59:39.550Z,151.43
2023-05-22T20:02:07.904Z,148.63
2023-05-22T20:04:35.640Z,100.63
2023-05-22T20:07:04.076Z,136.90
2023-05-22T20:09:31.670Z,144.43
2023-05-22T20:11:59.102Z,184.45
2023-05-22T20:14:26.834Z,280.50
2023-05-22T20:16:54.830Z,123.97
2023-05-22T20:19:24.491Z,112.72
2023-05-22T20:21:52.690Z,106.07
2023-05-22T20:24:21.225Z,97.15
2023-05-22T20:26:48.753Z,100.75
2023-05-22T20:29:16.306Z,100.50
2023-05-22T20:31:44.227Z,99.25
2023-05-22T20:34:12.109Z,104.18
2023-05-22T20:36:41.138Z,103.63
2023-05-22T20:39:09.547Z,113.75
2023-05-22T20:41:37.046Z,104.82
2023-05-22T20:44:04.726Z,116.78
2023-05-22T20:46:32.454Z,110.22
2023-05-22T20:49:00.213Z,122.57
2023-05-22T20:51:32.805Z,109.00
2023-05-22T20:54:00.778Z,116.35
2023-05-22T20:56:29.203Z,115.07
2023-05-22T20:58:57.356Z,117.55
2023-05-22T21:01:25.509Z,111.25
2023-05-22T21:03:54.790Z,104.70
2023-05-22T21:06:23.362Z,120.15
2023-05-22T21:08:53.875Z,116.47
2023-05-22T21:11:21.874Z,117.45
2023-05-22T21:13:49.615Z,101.35
2023-05-22T21:16:17.229Z,105.05
2023-05-22T21:18:45.119Z,101.38
2023-05-22T21:21:18.194Z,95.93
2023-05-22T21:23:45.829Z,87.43
2023-05-22T21:26:13.275Z,92.70
2023-05-22T21:28:41.029Z,89.05
2023-05-22T21:31:08.832Z,92.72
2023-05-22T21:33:36.600Z,90.28
2023-05-22T21:36:04.381Z,83.50
2023-05-22T21:38:32.018Z,95.10
2023-05-22T21:40:59.834Z,80.70
2023-05-22T21:43:27.312Z,92.68
2023-05-22T21:45:54.821Z,101.47
2023-05-22T21:48:22.409Z,93.93
2023-05-22T21:50:50.464Z,93.50
2023-05-22T21:53:18.037Z,89.00
2023-05-22T21:55:45.683Z,95.30
2023-05-22T21:58:14.005Z,84.70
2023-05-22T22:00:41.876Z,91.55
2023-05-22T22:03:09.720Z,82.57
2023-05-22T22:05:37.363Z,97.00
2023-05-22T22:08:05.550Z,85.00
2023-05-22T22:10:33.052Z,89.53
2023-05-22T22:13:01.752Z,87.70
2023-05-22T22:15:29.998Z,102.20
2023-05-22T22:17:59.633Z,104.75
2023-05-22T22:20:39.962Z,91.28
2023-05-22T22:23:12.289Z,106.70
2023-05-22T22:25:39.851Z,92.68
2023-05-22T22:28:07.779Z,100.60
2023-05-22T22:30:35.669Z,99.03
2023-05-22T22:33:03.365Z,98.63
2023-05-22T22:35:31.156Z,100.55
2023-05-22T22:37:59.142Z,109.97
2023-05-22T22:40:27.044Z,97.43
2023-05-22T22:42:54.851Z,106.97
2023-05-22T22:45:22.451Z,97.95
2023-05-22T22:47:50.180Z,100.47
2023-05-22T22:50:17.849Z,96.70
2023-05-22T22:52:48.136Z,95.18
2023-05-22T22:55:16.083Z,95.45
2023-05-22T22:57:45.019Z,87.20
2023-05-22T23:00:13.711Z,88.68
2023-05-22T23:02:41.597Z,87.90
2023-05-22T23:05:09.744Z,91.43
2023-05-22T23:07:37.344Z,95.70
2023-05-22T23:10:05.390Z,79.40
2023-05-22T23:12:35.466Z,89.55
2023-05-22T23:15:03.730Z,89.65
2023-05-22T23:17:31.671Z,82.68
2023-05-22T23:19:59.256Z,91.30
2023-05-22T23:22:26.827Z,82.38
2023-05-22T23:24:54.307Z,82.03
2023-05-22T23:27:22.261Z,83.05
2023-05-22T23:29:49.752Z,91.32
2023-05-22T23:32:17.286Z,81.75
2023-05-22T23:34:45.002Z,85.55
2023-05-22T23:37:12.565Z,80.28
2023-05-22T23:39:40.143Z,82.65
2023-05-22T23:42:11.391Z,79.80
2023-05-22T23:44:39.087Z,83.32
2023-05-22T23:47:07.281Z,78.95
2023-05-22T23:49:34.829Z,81.07
2023-05-22T23:52:02.390Z,84.43
2023-05-22T23:54:29.994Z,81.05
2023-05-22T23:56:57.465Z,81.30
2023-05-22T23:59:25.003Z,80.90
